sensor_id;sensor_type;location;lat;lon;timestamp;pressure;altitude;pressure_sealevel;temperature;humidity
7662;BME280;30314;48.184;11.510;2023-01-29T09:49:20;96810.38;;;20.45;40.07
7662;BME280;30314;48.184;11.510;2023-01-29T09:51:56;96815.41;;;20.46;40.33
7662;BME280;30314;48.184;11.510;2023-01-29T09:57:44;96806.91;;;20.44;40.35
7662;BME280;30314;48.184;11.510;2023-01-29T10:00:28;96811.59;;;20.47;39.90
7662;BME280;30314;48.184;11.510;2023-01-29T10:06:24;96805.78;;;20.45;40.17
7662;BME280;30314;48.184;11.510;2023-01-29T10:15:04;96800.28;;;20.41;39.83
7662;BME280;30314;48.184;11.510;2023-01-29T10:20:43;96795.38;;;20.43;40.11
7662;BME280;30314;48.184;11.510;2023-01-29T10:23:29;96795.72;;;20.42;39.76
7662;BME280;30314;48.184;11.510;2023-01-29T10:25:56;96801.41;;;20.40;39.93
7662;BME280;30314;48.184;11.510;2023-01-29T10:31:09;96801.09;;;20.42;40.02
7662;BME280;30314;48.184;11.510;2023-01-29T10:33:42;96796.03;;;20.40;40.26
7662;BME280;30314;48.184;11.510;2023-01-29T10:36:25;96788.44;;;20.42;39.90
7662;BME280;30314;48.184;11.510;2023-01-29T10:38:53;96804.22;;;20.44;40.01
7662;BME280;30314;48.184;11.510;2023-01-29T10:41:41;96792.69;;;20.43;39.87
7662;BME280;30314;48.184;11.510;2023-01-29T10:50:44;96785.28;;;20.40;40.00
7662;BME280;30314;48.184;11.510;2023-01-29T10:56:34;96781.03;;;20.39;40.00
7662;BME280;30314;48.184;11.510;2023-01-29T11:01:57;96778.81;;;20.41;40.11
7662;BME280;30314;48.184;11.510;2023-01-29T11:04:28;96778.34;;;20.39;39.74
7662;BME280;30314;48.184;11.510;2023-01-29T11:06:56;96778.03;;;20.41;39.65
7662;BME280;30314;48.184;11.510;2023-01-29T11:09:34;96773.78;;;20.40;40.05
7662;BME280;30314;48.184;11.510;2023-01-29T11:12:22;96774.56;;;20.40;39.85
7662;BME280;30314;48.184;11.510;2023-01-29T11:15:15;96762.25;;;20.39;39.92
7662;BME280;30314;48.184;11.510;2023-01-29T11:18:08;96771.88;;;20.40;39.65
7662;BME280;30314;48.184;11.510;2023-01-29T11:20:40;96761.78;;;20.37;40.07
7662;BME280;30314;48.184;11.510;2023-01-29T11:23:27;96753.75;;;20.37;39.86
7662;BME280;30314;48.184;11.510;2023-01-29T11:25:54;96755.31;;;20.38;39.80
7662;BME280;30314;48.184;11.510;2023-01-29T11:28:40;96756.88;;;20.39;40.05
7662;BME280;30314;48.184;11.510;2023-01-29T11:31:25;96754.19;;;20.39;40.07
7662;BME280;30314;48.184;11.510;2023-01-29T11:34:02;96744.56;;;20.38;39.65
7662;BME280;30314;48.184;11.510;2023-01-29T11:36:34;96742.31;;;20.40;39.88
7662;BME280;30314;48.184;11.510;2023-01-29T11:39:21;96750.38;;;20.40;40.06
7662;BME280;30314;48.184;11.510;2023-01-29T11:41:59;96748.06;;;20.39;39.33
7662;BME280;30314;48.184;11.510;2023-01-29T11:44:40;96733.56;;;20.19;38.59
7662;BME280;30314;48.184;11.510;2023-01-29T11:47:20;96728.53;;;20.17;39.18
7662;BME280;30314;48.184;11.510;2023-01-29T11:49:59;96717.25;;;20.24;39.51
7662;BME280;30314;48.184;11.510;2023-01-29T11:52:39;96701.81;;;20.21;39.54
7662;BME280;30314;48.184;11.510;2023-01-29T11:55:29;96688.00;;;20.10;37.60
7662;BME280;30314;48.184;11.510;2023-01-29T11:58:10;96679.75;;;19.81;36.44
7662;BME280;30314;48.184;11.510;2023-01-29T12:00:40;96671.59;;;19.90;38.45
7662;BME280;30314;48.184;11.510;2023-01-29T12:05:37;96670.81;;;20.11;38.56
7662;BME280;30314;48.184;11.510;2023-01-29T12:08:16;96667.09;;;20.16;38.91
7662;BME280;30314;48.184;11.510;2023-01-29T12:10:43;96659.41;;;20.14;38.66
7662;BME280;30314;48.184;11.510;2023-01-29T12:15:36;96669.16;;;20.19;38.79
7662;BME280;30314;48.184;11.510;2023-01-29T12:20:40;96670.91;;;20.14;38.98
7662;BME280;30314;48.184;11.510;2023-01-29T12:23:54;96669.59;;;20.21;38.97
7662;BME280;30314;48.184;11.510;2023-01-29T12:26:56;96667.78;;;20.12;39.08
7662;BME280;30314;48.184;11.510;2023-01-29T12:30:04;96700.00;;;20.25;38.91
7662;BME280;30314;48.184;11.510;2023-01-29T12:32:43;96690.84;;;20.26;38.98
7662;BME280;30314;48.184;11.510;2023-01-29T15:49:34;96582.31;;;20.14;39.31
7662;BME280;30314;48.184;11.510;2023-01-29T15:52:15;96574.94;;;20.11;39.38
7662;BME280;30314;48.184;11.510;2023-01-29T15:54:42;96572.59;;;20.10;39.18
7662;BME280;30314;48.184;11.510;2023-01-29T15:57:20;96579.06;;;20.09;39.42
7662;BME280;30314;48.184;11.510;2023-01-29T15:59:47;96573.38;;;20.10;38.94
7662;BME280;30314;48.184;11.510;2023-01-29T16:02:39;96582.69;;;20.13;39.05
7662;BME280;30314;48.184;11.510;2023-01-29T16:05:18;96581.88;;;20.12;39.24
7662;BME280;30314;48.184;11.510;2023-01-29T16:07:46;96575.63;;;20.08;39.25
7662;BME280;30314;48.184;11.510;2023-01-29T16:10:35;96574.50;;;20.09;39.38
7662;BME280;30314;48.184;11.510;2023-01-29T16:13:02;96578.88;;;20.14;39.44
7662;BME280;30314;48.184;11.510;2023-01-29T16:15:38;96586.13;;;20.13;39.30
7662;BME280;30314;48.184;11.510;2023-01-29T16:18:37;96588.03;;;20.13;39.60
7662;BME280;30314;48.184;11.510;2023-01-29T16:21:32;96592.63;;;20.12;39.59
7662;BME280;30314;48.184;11.510;2023-01-29T16:24:05;96591.06;;;20.11;39.58
7662;BME280;30314;48.184;11.510;2023-01-29T16:26:42;96591.19;;;20.15;39.40
7662;BME280;30314;48.184;11.510;2023-01-29T16:29:16;96588.13;;;20.17;39.38
7662;BME280;30314;48.184;11.510;2023-01-29T16:31:44;96587.38;;;20.16;39.46
7662;BME280;30314;48.184;11.510;2023-01-29T16:34:30;96595.75;;;20.14;39.26
7662;BME280;30314;48.184;11.510;2023-01-29T16:37:01;96590.59;;;20.09;39.17
7662;BME280;30314;48.184;11.510;2023-01-29T16:39:37;96597.53;;;20.10;39.21
7662;BME280;30314;48.184;11.510;2023-01-29T16:44:57;96611.41;;;20.12;39.10
7662;BME280;30314;48.184;11.510;2023-01-29T16:47:28;96614.09;;;20.12;39.24
7662;BME280;30314;48.184;11.510;2023-01-29T16:53:10;96615.66;;;20.13;39.46
7662;BME280;30314;48.184;11.510;2023-01-29T16:55:39;96621.03;;;20.13;39.42
7662;BME280;30314;48.184;11.510;2023-01-29T16:58:19;96621.03;;;20.13;39.12
7662;BME280;30314;48.184;11.510;2023-01-29T17:00:57;96623.25;;;20.11;39.08
7662;BME280;30314;48.184;11.510;2023-01-29T17:03:25;96631.75;;;20.13;39.38
7662;BME280;30314;48.184;11.510;2023-01-29T17:05:53;96625.28;;;20.14;39.07
7662;BME280;30314;48.184;11.510;2023-01-29T17:08:28;96624.06;;;20.12;39.26
7662;BME280;30314;48.184;11.510;2023-01-29T17:10:54;96619.34;;;20.09;39.32
7662;BME280;30314;48.184;11.510;2023-01-29T17:16:27;96621.69;;;20.10;39.18
7662;BME280;30314;48.184;11.510;2023-01-29T17:18:54;96624.06;;;20.12;38.68
7662;BME280;30314;48.184;11.510;2023-01-29T17:21:20;96628.16;;;19.97;36.41
7662;BME280;30314;48.184;11.510;2023-01-29T17:23:46;96627.44;;;19.88;36.66
7662;BME280;30314;48.184;11.510;2023-01-29T17:26:13;96632.84;;;20.00;37.33
7662;BME280;30314;48.184;11.510;2023-01-29T17:28:42;96629.84;;;20.02;37.71
7662;BME280;30314;48.184;11.510;2023-01-29T17:31:08;96621.13;;;20.05;37.72
7662;BME280;30314;48.184;11.510;2023-01-29T17:33:41;96626.75;;;20.12;37.76
7662;BME280;30314;48.184;11.510;2023-01-29T17:36:12;96624.16;;;20.16;38.11
7662;BME280;30314;48.184;11.510;2023-01-29T17:38:39;96623.50;;;20.19;38.63
7662;BME280;30314;48.184;11.510;2023-01-29T17:41:21;96627.63;;;20.16;38.42
7662;BME280;30314;48.184;11.510;2023-01-29T17:43:48;96631.00;;;20.13;38.68
7662;BME280;30314;48.184;11.510;2023-01-29T17:46:16;96626.84;;;20.16;39.11
7662;BME280;30314;48.184;11.510;2023-01-29T17:48:43;96621.81;;;20.14;39.37
7662;BME280;30314;48.184;11.510;2023-01-29T17:51:13;96627.97;;;20.14;39.53
7662;BME280;30314;48.184;11.510;2023-01-29T17:53:40;96621.03;;;20.13;39.63
7662;BME280;30314;48.184;11.510;2023-01-29T17:56:34;96627.97;;;20.14;39.49
7662;BME280;30314;48.184;11.510;2023-01-29T17:58:59;96624.16;;;20.16;39.43
7662;BME280;30314;48.184;11.510;2023-01-29T18:01:26;96624.06;;;20.12;39.24
7662;BME280;30314;48.184;11.510;2023-01-29T18:03:51;96632.19;;;20.16;39.26
7662;BME280;30314;48.184;11.510;2023-01-29T18:06:26;96619.91;;;20.14;38.74
7662;BME280;30314;48.184;11.510;2023-01-29T18:08:52;96618.47;;;20.17;38.78
7662;BME280;30314;48.184;11.510;2023-01-29T18:11:18;96609.97;;;20.15;38.97
7662;BME280;30314;48.184;11.510;2023-01-29T18:13:44;96617.66;;;20.17;38.65
7662;BME280;30314;48.184;11.510;2023-01-29T18:16:10;96618.78;;;20.28;39.06
7662;BME280;30314;48.184;11.510;2023-01-29T18:18:36;96616.03;;;20.24;38.21
7662;BME280;30314;48.184;11.510;2023-01-29T18:21:01;96611.84;;;20.27;38.73
7662;BME280;30314;48.184;11.510;2023-01-29T18:23:27;96613.44;;;20.28;39.21
7662;BME280;30314;48.184;11.510;2023-01-29T18:25:56;96614.22;;;20.28;39.05
7662;BME280;30314;48.184;11.510;2023-01-29T18:28:22;96617.03;;;20.32;39.43
7662;BME280;30314;48.184;11.510;2023-01-29T18:30:48;96609.84;;;20.36;39.47
7662;BME280;30314;48.184;11.510;2023-01-29T18:33:15;96605.72;;;20.39;39.33
7662;BME280;30314;48.184;11.510;2023-01-29T18:35:43;96603.13;;;20.42;39.18
7662;BME280;30314;48.184;11.510;2023-01-29T18:38:10;96605.94;;;20.46;39.47
7662;BME280;30314;48.184;11.510;2023-01-29T18:40:36;96607.63;;;20.51;39.64
7662;BME280;30314;48.184;11.510;2023-01-29T18:43:01;96609.75;;;20.58;39.32
7662;BME280;30314;48.184;11.510;2023-01-29T18:45:29;96607.03;;;20.70;39.22
7662;BME280;30314;48.184;11.510;2023-01-29T18:47:55;96601.09;;;20.77;39.01
7662;BME280;30314;48.184;11.510;2023-01-29T18:50:22;96607.16;;;20.86;38.71
7662;BME280;30314;48.184;11.510;2023-01-29T18:52:50;96610.59;;;20.99;38.88
7662;BME280;30314;48.184;11.510;2023-01-29T18:55:15;96618.06;;;21.18;38.68
7662;BME280;30314;48.184;11.510;2023-01-29T18:57:41;96610.28;;;21.29;38.15
7662;BME280;30314;48.184;11.510;2023-01-29T19:00:08;96613.03;;;21.45;37.92
7662;BME280;30314;48.184;11.510;2023-01-29T19:02:34;96613.84;;;21.62;37.46
7662;BME280;30314;48.184;11.510;2023-01-29T19:05:00;96612.63;;;21.88;37.71
7662;BME280;30314;48.184;11.510;2023-01-29T19:07:26;96607.84;;;21.97;37.14
7662;BME280;30314;48.184;11.510;2023-01-29T19:33:49;96600.34;;;24.35;32.50
7662;BME280;30314;48.184;11.510;2023-01-29T19:38:14;96606.06;;;25.45;30.94
7662;BME280;30314;48.184;11.510;2023-01-29T19:40:46;96601.50;;;25.50;30.91
7662;BME280;30314;48.184;11.510;2023-01-29T19:44:18;96591.19;;;25.63;30.55
7662;BME280;30314;48.184;11.510;2023-01-29T19:46:43;96596.00;;;25.80;30.18
7662;BME280;30314;48.184;11.510;2023-01-29T19:49:10;96586.47;;;25.97;29.54
7662;BME280;30314;48.184;11.510;2023-01-29T19:51:36;96586.22;;;26.13;29.07
7662;BME280;30314;48.184;11.510;2023-01-29T19:54:02;96585.31;;;25.98;29.56
7662;BME280;30314;48.184;11.510;2023-01-29T19:56:28;96574.47;;;25.95;29.52
7662;BME280;30314;48.184;11.510;2023-01-29T19:58:53;96576.66;;;25.82;30.12
7662;BME280;30314;48.184;11.510;2023-01-29T20:01:21;96578.66;;;25.88;29.60
7662;BME280;30314;48.184;11.510;2023-01-29T20:03:50;96582.09;;;25.82;29.88
7662;BME280;30314;48.184;11.510;2023-01-29T20:06:17;96571.25;;;25.82;29.57
7662;BME280;30314;48.184;11.510;2023-01-29T20:08:43;96574.19;;;25.66;29.89
7662;BME280;30314;48.184;11.510;2023-01-29T20:11:30;96571.63;;;25.42;29.58
7662;BME280;30314;48.184;11.510;2023-01-29T20:13:57;96563.75;;;25.30;29.57
7662;BME280;30314;48.184;11.510;2023-01-29T20:16:24;96567.81;;;25.47;29.76
7662;BME280;30314;48.184;11.510;2023-01-29T20:18:51;96568.16;;;25.45;29.51
7662;BME280;30314;48.184;11.510;2023-01-29T20:21:19;96572.50;;;25.50;29.74
7662;BME280;30314;48.184;11.510;2023-01-29T20:23:48;96568.75;;;25.62;29.69
7662;BME280;30314;48.184;11.510;2023-01-29T20:26:16;96572.91;;;25.52;29.45
7662;BME280;30314;48.184;11.510;2023-01-29T20:28:44;96572.19;;;25.59;29.63
7662;BME280;30314;48.184;11.510;2023-01-29T20:31:12;96566.47;;;25.64;29.45
7662;BME280;30314;48.184;11.510;2023-01-29T20:33:39;96574.13;;;25.58;29.60
7662;BME280;30314;48.184;11.510;2023-01-29T20:36:08;96569.31;;;25.44;29.39
7662;BME280;30314;48.184;11.510;2023-01-29T20:38:35;96567.19;;;25.61;29.44
7662;BME280;30314;48.184;11.510;2023-01-29T20:41:07;96569.09;;;25.57;29.42
7662;BME280;30314;48.184;11.510;2023-01-29T20:43:34;96566.41;;;25.60;29.27
7662;BME280;30314;48.184;11.510;2023-01-29T20:46:01;96558.66;;;25.59;29.78
7662;BME280;30314;48.184;11.510;2023-01-29T20:48:28;96557.06;;;25.51;29.57
7662;BME280;30314;48.184;11.510;2023-01-29T20:50:55;96556.13;;;25.39;29.91
7662;BME280;30314;48.184;11.510;2023-01-29T20:53:22;96555.50;;;25.50;29.88
7662;BME280;30314;48.184;11.510;2023-01-29T20:55:49;96551.56;;;25.47;29.62
7662;BME280;30314;48.184;11.510;2023-01-29T20:58:15;96548.00;;;25.39;29.85
7662;BME280;30314;48.184;11.510;2023-01-29T21:00:43;96549.06;;;25.31;30.01
7662;BME280;30314;48.184;11.510;2023-01-29T21:03:10;96549.53;;;25.37;29.96
7662;BME280;30314;48.184;11.510;2023-01-29T21:05:36;96547.88;;;25.25;29.99
7662;BME280;30314;48.184;11.510;2023-01-29T21:08:02;96544.72;;;25.19;30.26
7662;BME280;30314;48.184;11.510;2023-01-29T21:10:29;96545.91;;;25.22;30.28
7662;BME280;30314;48.184;11.510;2023-01-29T21:12:55;96548.91;;;25.16;30.03
7662;BME280;30314;48.184;11.510;2023-01-29T21:15:22;96550.75;;;25.09;30.55
7662;BME280;30314;48.184;11.510;2023-01-29T21:17:49;96539.59;;;25.10;30.29
7662;BME280;30314;48.184;11.510;2023-01-29T21:20:17;96549.16;;;25.04;30.44
7662;BME280;30314;48.184;11.510;2023-01-29T21:22:44;96530.31;;;25.11;30.16
7662;BME280;30314;48.184;11.510;2023-01-29T21:25:10;96543.47;;;25.13;30.23
7662;BME280;30314;48.184;11.510;2023-01-29T21:27:37;96550.31;;;25.03;30.48
7662;BME280;30314;48.184;11.510;2023-01-29T21:30:04;96550.19;;;24.92;30.70
7662;BME280;30314;48.184;11.510;2023-01-29T21:32:31;96558.34;;;24.96;30.49
7662;BME280;30314;48.184;11.510;2023-01-29T21:34:57;96555.97;;;24.90;30.82
7662;BME280;30314;48.184;11.510;2023-01-29T21:37:24;96557.78;;;24.83;30.69
7662;BME280;30314;48.184;11.510;2023-01-29T21:39:50;96548.47;;;24.80;30.56
7662;BME280;30314;48.184;11.510;2023-01-29T21:42:17;96553.00;;;24.72;30.96
7662;BME280;30314;48.184;11.510;2023-01-29T21:45:02;96544.47;;;24.70;31.17
7662;BME280;30314;48.184;11.510;2023-01-29T21:47:29;96553.47;;;24.78;31.20
7662;BME280;30314;48.184;11.510;2023-01-29T21:49:55;96547.31;;;24.77;31.10
7662;BME280;30314;48.184;11.510;2023-01-29T21:52:22;96548.47;;;24.80;30.88
7662;BME280;30314;48.184;11.510;2023-01-29T21:54:48;96539.88;;;24.74;31.06
7662;BME280;30314;48.184;11.510;2023-01-29T21:57:15;96539.81;;;24.67;31.25
7662;BME280;30314;48.184;11.510;2023-01-29T21:59:42;96540.56;;;24.68;30.89
7662;BME280;30314;48.184;11.510;2023-01-29T22:02:17;96532.16;;;24.73;30.94
7662;BME280;30314;48.184;11.510;2023-01-29T22:04:44;96536.81;;;24.76;30.90
7662;BME280;30314;48.184;11.510;2023-01-29T22:07:11;96539.47;;;24.72;30.81
7662;BME280;30314;48.184;11.510;2023-01-29T22:09:38;96532.50;;;24.71;30.74
7662;BME280;30314;48.184;11.510;2023-01-29T22:12:06;96541.34;;;24.68;31.03
7662;BME280;30314;48.184;11.510;2023-01-29T22:14:33;96537.47;;;24.66;31.33
7662;BME280;30314;48.184;11.510;2023-01-29T22:16:59;96530.09;;;24.62;31.01
7662;BME280;30314;48.184;11.510;2023-01-29T22:19:26;96536.59;;;24.58;31.30
7662;BME280;30314;48.184;11.510;2023-01-29T22:21:54;96534.63;;;24.55;30.98
7662;BME280;30314;48.184;11.510;2023-01-29T22:24:21;96527.31;;;24.59;30.80
7662;BME280;30314;48.184;11.510;2023-01-29T22:26:47;96522.59;;;24.52;31.11
7662;BME280;30314;48.184;11.510;2023-01-29T22:29:15;96520.97;;;24.44;31.20
7662;BME280;30314;48.184;11.510;2023-01-29T22:31:45;96519.91;;;24.52;31.21
7662;BME280;30314;48.184;11.510;2023-01-29T22:34:12;96516.72;;;24.43;31.24
7662;BME280;30314;48.184;11.510;2023-01-29T22:36:39;96507.41;;;24.40;31.28
7662;BME280;30314;48.184;11.510;2023-01-29T22:39:09;96507.34;;;24.37;31.31
7662;BME280;30314;48.184;11.510;2023-01-29T22:41:35;96490.41;;;24.40;31.31
7662;BME280;30314;48.184;11.510;2023-01-29T22:44:02;96485.28;;;24.31;31.39
7662;BME280;30314;48.184;11.510;2023-01-29T22:46:29;96481.69;;;24.23;31.44
7662;BME280;30314;48.184;11.510;2023-01-29T22:48:55;96479.41;;;24.25;31.34
7662;BME280;30314;48.184;11.510;2023-01-29T22:51:22;96472.78;;;24.19;31.94
7662;BME280;30314;48.184;11.510;2023-01-29T22:53:53;96464.59;;;24.15;31.63
7662;BME280;30314;48.184;11.510;2023-01-29T22:56:22;96458.34;;;24.07;31.75
7662;BME280;30314;48.184;11.510;2023-01-29T22:58:53;96464.13;;;24.10;31.85
7662;BME280;30314;48.184;11.510;2023-01-29T23:01:22;96451.00;;;24.08;31.72
7662;BME280;30314;48.184;11.510;2023-01-29T23:03:49;96451.97;;;23.96;32.01
7662;BME280;30314;48.184;11.510;2023-01-29T23:06:17;96450.81;;;23.97;32.02
7662;BME280;30314;48.184;11.510;2023-01-29T23:08:44;96438.88;;;23.98;31.94
7662;BME280;30314;48.184;11.510;2023-01-29T23:11:10;96446.88;;;23.91;31.99
7662;BME280;30314;48.184;11.510;2023-01-29T23:13:45;96444.28;;;23.98;31.99
7662;BME280;30314;48.184;11.510;2023-01-29T23:16:13;96443.03;;;23.92;32.17
7662;BME280;30314;48.184;11.510;2023-01-29T23:18:40;96437.53;;;23.85;32.00
7662;BME280;30314;48.184;11.510;2023-01-29T23:21:07;96433.19;;;23.76;32.08
7662;BME280;30314;48.184;11.510;2023-01-29T23:23:35;96442.38;;;23.75;32.27
7662;BME280;30314;48.184;11.510;2023-01-29T23:26:04;96425.75;;;23.70;32.26
7662;BME280;30314;48.184;11.510;2023-01-29T23:28:50;96429.53;;;23.65;32.43
7662;BME280;30314;48.184;11.510;2023-01-29T23:31:16;96425.63;;;23.62;32.37
7662;BME280;30314;48.184;11.510;2023-01-29T23:33:44;96425.56;;;23.59;32.43
7662;BME280;30314;48.184;11.510;2023-01-29T23:36:10;96426.41;;;23.63;32.45
7662;BME280;30314;48.184;11.510;2023-01-29T23:38:37;96427.13;;;23.60;32.49
7662;BME280;30314;48.184;11.510;2023-01-29T23:41:04;96423.59;;;23.56;32.76
7662;BME280;30314;48.184;11.510;2023-01-29T23:43:30;96421.09;;;23.43;32.74
7662;BME280;30314;48.184;11.510;2023-01-29T23:45:57;96419.19;;;23.44;32.72
7662;BME280;30314;48.184;11.510;2023-01-29T23:48:24;96419.88;;;23.41;32.73
7662;BME280;30314;48.184;11.510;2023-01-29T23:50:51;96422.63;;;23.44;32.72
7662;BME280;30314;48.184;11.510;2023-01-29T23:53:17;96411.19;;;23.28;33.05
7662;BME280;30314;48.184;11.510;2023-01-29T23:55:57;96410.84;;;23.29;32.95
7662;BME280;30314;48.184;11.510;2023-01-29T23:58:24;96404.25;;;23.27;33.11
